Time;durP1;ratioP1;P1;durP2;ratioP2;P2;SDS_P1;SDS_P2;PMS_P1;PMS_P2;Temp;Humidity;BMP_temperature;BMP_pressure;BME280_temperature;BME280_humidity;BME280_pressure;Samples;Min_cycle;Max_cycle;Signal;HPM_P1;HPM_P2
2021/08/31 00:01:40;;;;;;;8.32;7.30;;;13.00;99.90;;;;;;5037444;28;20013;-47
2021/08/31 00:04:06;;;;;;;9.30;7.88;;;13.00;99.90;;;;;;5044489;28;20027;-47
2021/08/31 00:06:32;;;;;;;9.60;7.13;;;13.00;99.90;;;;;;5037688;28;20029;-49
2021/08/31 00:08:57;;;;;;;7.50;6.80;;;13.00;99.90;;;;;;5045261;28;20021;-47
2021/08/31 00:11:23;;;;;;;10.52;7.68;;;12.90;99.90;;;;;;5038326;28;20021;-50
2021/08/31 00:13:49;;;;;;;9.02;7.50;;;12.90;99.90;;;;;;5044200;28;20368;-46
2021/08/31 00:16:14;;;;;;;12.27;8.93;;;12.80;99.90;;;;;;5039091;28;20048;-49
2021/08/31 00:18:42;;;;;;;10.80;7.05;;;12.80;99.90;;;;;;5037846;28;20026;-48
2021/08/31 00:21:08;;;;;;;8.10;7.10;;;12.80;99.90;;;;;;5044356;28;20016;-46
2021/08/31 00:23:33;;;;;;;9.57;7.47;;;12.80;99.90;;;;;;5037843;28;20495;-48
2021/08/31 00:25:59;;;;;;;7.57;6.70;;;12.80;99.90;;;;;;5044748;28;20088;-46
2021/08/31 00:28:24;;;;;;;8.82;7.20;;;12.70;99.90;;;;;;5034843;28;20552;-46
2021/08/31 00:30:50;;;;;;;10.43;7.22;;;12.70;99.90;;;;;;5044952;28;20035;-45
2021/08/31 00:33:16;;;;;;;9.82;6.78;;;12.70;99.90;;;;;;5033968;28;20024;-50
2021/08/31 00:35:41;;;;;;;10.90;7.78;;;12.70;99.90;;;;;;5036324;28;20034;-46
2021/08/31 00:38:07;;;;;;;9.38;7.35;;;12.70;99.90;;;;;;5031148;28;20053;-45
2021/08/31 00:40:32;;;;;;;9.77;7.75;;;12.60;99.90;;;;;;5036086;28;20100;-47
2021/08/31 00:42:58;;;;;;;9.25;7.43;;;12.60;99.90;;;;;;5041515;28;20013;-48
2021/08/31 00:45:24;;;;;;;8.95;6.95;;;12.60;99.90;;;;;;5037712;28;20021;-45
2021/08/31 00:47:50;;;;;;;7.93;6.72;;;12.60;99.90;;;;;;5029293;28;20032;-50
2021/08/31 00:50:17;;;;;;;8.32;6.57;;;12.50;99.90;;;;;;5035050;28;20029;-50
2021/08/31 00:52:43;;;;;;;8.50;6.82;;;12.60;99.90;;;;;;5037482;28;20112;-47
2021/08/31 00:55:13;;;;;;;7.97;6.53;;;12.50;99.90;;;;;;5031038;28;20093;-48
2021/08/31 00:57:39;;;;;;;8.20;6.63;;;12.50;99.90;;;;;;5040353;28;20025;-48
2021/08/31 01:00:07;;;;;;;7.40;6.70;;;12.50;99.90;;;;;;5035890;28;20680;-45
2021/08/31 01:02:32;;;;;;;8.45;7.00;;;12.50;99.90;;;;;;5040809;28;20018;-51
2021/08/31 01:04:58;;;;;;;7.78;6.97;;;12.40;99.90;;;;;;5036337;28;20124;-50
2021/08/31 01:07:24;;;;;;;9.95;7.18;;;12.40;99.90;;;;;;5040651;28;20024;-50
2021/08/31 01:09:50;;;;;;;8.23;6.38;;;12.40;99.90;;;;;;5038879;28;20696;-46
2021/08/31 01:12:17;;;;;;;10.18;6.43;;;12.30;99.90;;;;;;5038591;28;20017;-48
2021/08/31 01:14:43;;;;;;;9.00;7.40;;;12.40;99.90;;;;;;5040746;28;20029;-48
2021/08/31 01:17:08;;;;;;;11.52;7.15;;;12.30;99.90;;;;;;5038859;28;20403;-49
2021/08/31 01:19:34;;;;;;;10.85;6.57;;;12.30;99.90;;;;;;5046754;28;20029;-46
2021/08/31 01:22:10;;;;;;;7.85;5.97;;;12.30;99.90;;;;;;5037835;28;20032;-48
2021/08/31 01:24:42;;;;;;;8.88;7.05;;;12.20;99.90;;;;;;5038892;28;20104;-49
2021/08/31 01:27:09;;;;;;;11.95;7.57;;;12.20;99.90;;;;;;5037269;28;20017;-49
2021/08/31 01:29:35;;;;;;;12.60;8.68;;;12.20;99.90;;;;;;5036480;28;20104;-50
2021/08/31 01:32:03;;;;;;;9.93;7.28;;;12.10;99.90;;;;;;5038825;28;20079;-47
2021/08/31 01:34:29;;;;;;;11.50;7.80;;;12.10;99.90;;;;;;5039849;28;20022;-56
2021/08/31 01:36:55;;;;;;;10.27;8.35;;;12.10;99.90;;;;;;5039848;28;20041;-45
2021/08/31 01:39:21;;;;;;;9.02;7.95;;;12.10;99.90;;;;;;5027087;28;20025;-48
2021/08/31 01:41:48;;;;;;;8.40;7.38;;;12.00;99.90;;;;;;5039481;28;20072;-48
2021/08/31 01:44:14;;;;;;;9.68;8.38;;;12.00;99.90;;;;;;5038283;28;20091;-46
2021/08/31 01:46:40;;;;;;;9.35;7.53;;;12.00;99.90;;;;;;5039901;28;20017;-47
2021/08/31 01:49:06;;;;;;;10.25;6.93;;;12.00;99.90;;;;;;5036332;28;20121;-49
2021/08/31 01:51:32;;;;;;;10.68;8.75;;;12.00;99.90;;;;;;5039345;28;20128;-47
2021/08/31 01:53:58;;;;;;;13.45;9.25;;;12.00;99.90;;;;;;5038251;28;20021;-46
2021/08/31 01:56:23;;;;;;;10.60;7.82;;;12.00;99.90;;;;;;5039142;28;20104;-48
2021/08/31 01:58:49;;;;;;;9.77;7.60;;;12.00;99.90;;;;;;5038159;28;20033;-50
2021/08/31 02:01:14;;;;;;;11.02;8.20;;;11.90;99.90;;;;;;5038970;28;20048;-48
2021/08/31 02:03:40;;;;;;;12.05;8.65;;;11.90;99.90;;;;;;5038433;28;20116;-45
2021/08/31 02:06:06;;;;;;;10.93;8.60;;;11.90;99.90;;;;;;5037028;28;20025;-48
2021/08/31 02:08:31;;;;;;;11.85;8.20;;;11.90;99.90;;;;;;5039768;28;20029;-46
2021/08/31 02:10:57;;;;;;;9.70;7.43;;;11.90;99.90;;;;;;5036641;28;20074;-48
2021/08/31 02:13:22;;;;;;;9.15;7.72;;;11.90;99.90;;;;;;5039662;28;20021;-49
2021/08/31 02:15:48;;;;;;;10.77;8.18;;;11.80;99.90;;;;;;5039689;28;20025;-46
2021/08/31 02:18:14;;;;;;;11.02;7.78;;;11.80;99.90;;;;;;5038755;28;20104;-45
2021/08/31 02:20:39;;;;;;;10.30;7.75;;;11.80;99.90;;;;;;5040014;28;20021;-46
2021/08/31 02:23:06;;;;;;;11.43;7.97;;;11.80;99.90;;;;;;5037028;28;20013;-48
2021/08/31 02:25:32;;;;;;;12.23;8.32;;;11.80;99.90;;;;;;5039527;28;20015;-46
2021/08/31 02:27:57;;;;;;;13.25;7.72;;;11.80;99.90;;;;;;5032756;28;20025;-48
2021/08/31 02:30:23;;;;;;;9.35;7.45;;;11.80;99.90;;;;;;5039624;28;20021;-45
2021/08/31 02:32:49;;;;;;;9.88;7.85;;;11.80;99.90;;;;;;5039824;28;20687;-48
2021/08/31 02:35:16;;;;;;;10.52;8.25;;;11.70;99.90;;;;;;5037530;28;20028;-49
2021/08/31 02:37:41;;;;;;;11.75;8.02;;;11.70;99.90;;;;;;5038075;28;20086;-47
2021/08/31 02:40:07;;;;;;;12.32;8.60;;;11.70;99.90;;;;;;5037208;28;20037;-47
2021/08/31 02:42:33;;;;;;;10.90;7.60;;;11.70;99.90;;;;;;5037967;28;20021;-47
2021/08/31 02:44:58;;;;;;;16.63;8.60;;;11.70;99.90;;;;;;5037501;28;20079;-46
2021/08/31 02:47:24;;;;;;;10.75;8.23;;;11.70;99.90;;;;;;5037726;28;20056;-46
2021/08/31 02:49:50;;;;;;;9.35;7.57;;;11.70;99.90;;;;;;5039771;28;20032;-47
2021/08/31 02:52:15;;;;;;;12.60;8.88;;;11.60;99.90;;;;;;5036859;28;20095;-48
2021/08/31 02:54:41;;;;;;;10.65;8.63;;;11.60;99.90;;;;;;5040743;28;20025;-46
2021/08/31 02:57:07;;;;;;;12.10;8.80;;;11.60;99.90;;;;;;5037408;28;20021;-46
2021/08/31 02:59:33;;;;;;;14.85;8.65;;;11.60;99.90;;;;;;5033549;28;20086;-47
2021/08/31 03:02:04;;;;;;;16.73;9.02;;;11.60;99.90;;;;;;5039428;28;20017;-50
2021/08/31 03:04:31;;;;;;;16.65;10.30;;;11.60;99.90;;;;;;5035563;28;20025;-52
2021/08/31 03:06:57;;;;;;;9.55;8.48;;;11.50;99.90;;;;;;5041469;28;20020;-45
2021/08/31 03:09:22;;;;;;;12.70;9.65;;;11.50;99.90;;;;;;5035658;28;20025;-45
2021/08/31 03:11:48;;;;;;;12.15;8.45;;;11.50;99.90;;;;;;5039722;28;20367;-46
2021/08/31 03:14:19;;;;;;;13.00;9.93;;;11.50;99.90;;;;;;5036952;28;20048;-48
2021/08/31 03:16:45;;;;;;;12.90;8.93;;;11.50;99.90;;;;;;5045136;28;20104;-47
2021/08/31 03:19:11;;;;;;;9.98;8.43;;;11.50;99.90;;;;;;5040418;28;20467;-51
2021/08/31 03:21:37;;;;;;;12.15;9.23;;;11.50;99.90;;;;;;5037875;28;20014;-47
2021/08/31 03:24:02;;;;;;;13.00;8.68;;;11.50;99.90;;;;;;5045203;28;20494;-46
2021/08/31 03:26:29;;;;;;;12.82;8.80;;;11.50;99.90;;;;;;5038724;28;20092;-46
2021/08/31 03:28:54;;;;;;;10.45;8.60;;;11.40;99.90;;;;;;5042563;28;20436;-46
2021/08/31 03:31:20;;;;;;;13.80;10.00;;;11.40;99.90;;;;;;5034731;28;20049;-47
2021/08/31 03:33:45;;;;;;;10.45;8.82;;;11.40;99.90;;;;;;5045130;28;20064;-47
2021/08/31 03:36:11;;;;;;;11.45;8.85;;;11.30;99.90;;;;;;5037926;28;20426;-48
2021/08/31 03:38:36;;;;;;;11.73;8.75;;;11.30;99.90;;;;;;5038030;28;20060;-49
2021/08/31 03:41:02;;;;;;;11.57;9.52;;;11.30;99.90;;;;;;5045359;28;20146;-46
2021/08/31 03:43:27;;;;;;;11.73;9.65;;;11.30;99.90;;;;;;5037288;28;20022;-50
2021/08/31 03:45:53;;;;;;;9.85;8.02;;;11.30;99.90;;;;;;5039931;28;20048;-45
2021/08/31 03:48:19;;;;;;;13.43;9.25;;;11.30;99.90;;;;;;5042235;28;20021;-45
2021/08/31 03:50:45;;;;;;;11.50;8.30;;;11.30;99.90;;;;;;5041578;28;20013;-45
2021/08/31 03:53:10;;;;;;;13.20;9.48;;;11.30;99.90;;;;;;5040758;28;20370;-46
2021/08/31 03:55:36;;;;;;;13.05;9.65;;;11.20;99.90;;;;;;5043123;28;20025;-47
2021/08/31 03:58:05;;;;;;;11.48;9.48;;;11.20;99.90;;;;;;5040369;28;20072;-47
2021/08/31 04:00:31;;;;;;;13.48;10.07;;;11.20;99.90;;;;;;5044614;28;20017;-48
2021/08/31 04:02:57;;;;;;;13.98;9.07;;;11.20;99.90;;;;;;5036126;28;20388;-45
2021/08/31 04:05:22;;;;;;;14.40;9.77;;;11.20;99.90;;;;;;5041737;28;20036;-45
2021/08/31 04:07:48;;;;;;;17.40;9.23;;;11.20;99.90;;;;;;5040712;28;20028;-49
2021/08/31 04:10:14;;;;;;;13.68;9.02;;;11.20;99.90;;;;;;5039962;28;20029;-45
2021/08/31 04:12:39;;;;;;;12.57;9.45;;;11.10;99.90;;;;;;5042669;28;20024;-46
2021/08/31 04:15:05;;;;;;;13.43;9.90;;;11.10;99.90;;;;;;5039445;28;20028;-46
2021/08/31 04:17:31;;;;;;;10.57;8.15;;;11.10;99.90;;;;;;5044069;28;20036;-45
2021/08/31 04:19:56;;;;;;;12.15;9.23;;;11.20;99.90;;;;;;5038691;28;20025;-50
2021/08/31 04:22:22;;;;;;;11.75;8.50;;;11.10;99.90;;;;;;5042020;28;20071;-46
2021/08/31 04:24:47;;;;;;;12.10;8.95;;;11.10;99.90;;;;;;5039612;28;20802;-47
2021/08/31 04:27:13;;;;;;;13.43;8.80;;;11.10;99.90;;;;;;5040651;28;20596;-47
2021/08/31 04:29:39;;;;;;;12.60;8.60;;;11.10;99.90;;;;;;5039175;28;20553;-49
2021/08/31 04:32:04;;;;;;;14.75;9.48;;;11.10;99.90;;;;;;5039789;28;20023;-46
2021/08/31 04:34:30;;;;;;;12.25;9.02;;;11.10;99.90;;;;;;5044064;28;20029;-47
2021/08/31 04:36:55;;;;;;;12.55;9.10;;;11.10;99.90;;;;;;5035984;28;20512;-50
2021/08/31 04:39:21;;;;;;;9.88;7.97;;;11.10;99.90;;;;;;5040906;28;20390;-48
2021/08/31 04:41:47;;;;;;;11.68;9.38;;;11.10;99.90;;;;;;5039207;28;20056;-46
2021/08/31 04:44:13;;;;;;;12.90;9.32;;;11.10;99.90;;;;;;5040534;28;20010;-47
2021/08/31 04:46:38;;;;;;;11.18;8.88;;;11.10;99.90;;;;;;5041917;28;20465;-50
2021/08/31 04:49:04;;;;;;;13.23;9.18;;;11.10;99.90;;;;;;5038825;28;20026;-45
2021/08/31 04:51:29;;;;;;;12.45;8.30;;;11.10;99.90;;;;;;5041537;28;20566;-51
2021/08/31 04:53:55;;;;;;;12.90;8.82;;;11.10;99.90;;;;;;5039560;28;20062;-48
2021/08/31 04:56:20;;;;;;;13.50;8.43;;;11.10;99.90;;;;;;5040632;28;20032;-46
2021/08/31 04:58:46;;;;;;;10.30;8.23;;;11.20;99.90;;;;;;5040820;28;20108;-48
2021/08/31 05:01:11;;;;;;;12.30;8.85;;;11.20;99.90;;;;;;5039627;28;20070;-44
2021/08/31 05:03:38;;;;;;;15.57;9.43;;;11.20;99.90;;;;;;5041100;28;20021;-45
2021/08/31 05:06:03;;;;;;;12.65;8.88;;;11.20;99.90;;;;;;5038123;28;20021;-47
2021/08/31 05:08:29;;;;;;;18.52;9.98;;;11.30;99.90;;;;;;5040923;28;20017;-49
2021/08/31 05:10:54;;;;;;;12.10;9.02;;;11.30;99.90;;;;;;5039428;28;20514;-50
2021/08/31 05:13:20;;;;;;;12.23;9.20;;;11.30;99.90;;;;;;5028819;28;20024;-48
2021/08/31 05:15:45;;;;;;;13.00;10.23;;;11.30;99.90;;;;;;5040424;28;20048;-45
2021/08/31 05:18:11;;;;;;;14.80;8.93;;;11.30;99.90;;;;;;5039816;28;20032;-46
2021/08/31 05:20:38;;;;;;;11.93;9.07;;;11.40;99.90;;;;;;5043005;28;20094;-49
2021/08/31 05:23:04;;;;;;;12.48;9.68;;;11.40;99.90;;;;;;5038163;28;20021;-48
2021/08/31 05:25:29;;;;;;;15.27;10.00;;;11.40;99.90;;;;;;5040516;28;20529;-46
2021/08/31 05:27:55;;;;;;;10.30;8.63;;;11.50;99.90;;;;;;5033587;28;20036;-50
2021/08/31 05:30:21;;;;;;;15.90;9.43;;;11.50;99.90;;;;;;5041217;28;20491;-45
2021/08/31 05:32:47;;;;;;;15.73;10.18;;;11.60;99.90;;;;;;5040555;28;20036;-51
2021/08/31 05:35:12;;;;;;;18.52;10.25;;;11.60;99.90;;;;;;5039152;28;20064;-46
2021/08/31 05:37:41;;;;;;;14.27;9.88;;;11.70;99.90;;;;;;5039460;28;20068;-46
2021/08/31 05:40:07;;;;;;;12.23;9.73;;;11.70;99.90;;;;;;5036499;28;20029;-46
2021/08/31 05:42:33;;;;;;;14.75;9.75;;;11.80;99.90;;;;;;5040229;28;20082;-45
2021/08/31 05:44:59;;;;;;;14.45;10.20;;;11.80;99.90;;;;;;5038579;28;20024;-49
2021/08/31 05:47:24;;;;;;;15.52;10.05;;;11.80;99.90;;;;;;5038610;28;20072;-48
2021/08/31 05:49:50;;;;;;;15.05;10.40;;;11.90;99.90;;;;;;5040932;28;20029;-46
2021/08/31 05:52:16;;;;;;;13.82;9.50;;;12.00;99.90;;;;;;5037077;28;20441;-45
2021/08/31 05:54:41;;;;;;;15.07;9.55;;;12.10;99.90;;;;;;5041402;28;20028;-51
2021/08/31 05:57:10;;;;;;;14.52;10.15;;;12.10;99.90;;;;;;5038442;28;20119;-44
2021/08/31 05:59:39;;;;;;;14.07;9.65;;;12.20;99.90;;;;;;5035511;28;20024;-47
2021/08/31 06:02:09;;;;;;;15.00;10.52;;;12.20;99.90;;;;;;5039255;28;20387;-45
2021/08/31 06:04:38;;;;;;;14.50;10.02;;;12.30;99.90;;;;;;5036679;28;20013;-46
2021/08/31 06:07:09;;;;;;;11.82;9.45;;;12.40;99.90;;;;;;5041113;28;20013;-46
2021/08/31 06:09:36;;;;;;;16.15;9.65;;;12.40;99.90;;;;;;5036608;28;20021;-48
2021/08/31 06:12:06;;;;;;;13.32;9.85;;;12.50;99.90;;;;;;5043565;28;20092;-46
2021/08/31 06:14:32;;;;;;;15.13;9.35;;;12.50;99.90;;;;;;5036495;28;20395;-48
2021/08/31 06:16:58;;;;;;;13.80;10.10;;;12.60;99.90;;;;;;5043679;28;20021;-49
2021/08/31 06:19:24;;;;;;;16.25;10.77;;;12.70;99.90;;;;;;5036190;28;20072;-45
2021/08/31 06:21:49;;;;;;;13.63;9.73;;;12.70;99.90;;;;;;5035578;28;20577;-48
2021/08/31 06:24:15;;;;;;;13.07;9.02;;;12.80;99.90;;;;;;5042259;28;20076;-46
2021/08/31 06:26:41;;;;;;;10.90;8.80;;;12.80;99.90;;;;;;5036059;28;20057;-46
2021/08/31 06:29:06;;;;;;;12.30;8.85;;;12.90;99.90;;;;;;5039603;28;20099;-47
2021/08/31 06:31:32;;;;;;;11.40;9.20;;;13.00;99.90;;;;;;5036418;28;20048;-48
2021/08/31 06:33:58;;;;;;;15.00;8.50;;;13.00;99.90;;;;;;5044463;28;20056;-45
2021/08/31 06:36:23;;;;;;;10.32;8.27;;;13.10;99.90;;;;;;5036146;28;20092;-47
2021/08/31 06:38:49;;;;;;;15.13;10.38;;;13.20;99.90;;;;;;5036234;28;20096;-47
2021/08/31 06:41:14;;;;;;;13.68;9.55;;;13.30;99.90;;;;;;5042393;28;20026;-49
2021/08/31 06:43:41;;;;;;;15.18;9.15;;;13.30;99.90;;;;;;5045038;28;20059;-45
2021/08/31 06:46:07;;;;;;;14.60;9.85;;;13.40;99.90;;;;;;5044174;28;20082;-49
2021/08/31 06:48:33;;;;;;;12.48;8.65;;;13.50;99.90;;;;;;5046350;28;20036;-47
2021/08/31 06:50:58;;;;;;;11.68;8.90;;;13.60;99.90;;;;;;5048537;28;20023;-46
2021/08/31 06:53:25;;;;;;;13.82;9.35;;;13.70;99.90;;;;;;5044084;28;20036;-45
2021/08/31 06:55:50;;;;;;;10.27;7.95;;;13.80;99.90;;;;;;5039479;28;20403;-49
2021/08/31 06:58:16;;;;;;;14.85;8.45;;;13.90;99.90;;;;;;5043213;28;20023;-49
2021/08/31 07:00:43;;;;;;;11.52;8.25;;;14.00;99.90;;;;;;5041440;28;20021;-50
2021/08/31 07:03:08;;;;;;;10.90;8.32;;;14.10;99.90;;;;;;5040710;28;20014;-46
2021/08/31 07:05:34;;;;;;;13.52;7.90;;;14.20;99.90;;;;;;5040753;28;20438;-48
2021/08/31 07:07:59;;;;;;;11.20;6.97;;;14.30;99.90;;;;;;5039531;28;20018;-50
2021/08/31 07:10:25;;;;;;;13.63;8.30;;;14.50;99.90;;;;;;5042452;28;20078;-46
2021/08/31 07:12:50;;;;;;;13.23;7.38;;;14.70;99.90;;;;;;5040341;28;20056;-47
2021/08/31 07:15:16;;;;;;;11.18;7.32;;;14.80;99.90;;;;;;5043825;28;20066;-48
2021/08/31 07:17:42;;;;;;;9.18;7.28;;;15.00;99.90;;;;;;5042064;28;20044;-46
2021/08/31 07:20:08;;;;;;;10.30;7.70;;;15.10;99.90;;;;;;5041141;28;20183;-46
2021/08/31 07:22:34;;;;;;;9.43;6.35;;;15.30;99.90;;;;;;5040027;28;20020;-48
2021/08/31 07:24:59;;;;;;;9.70;6.43;;;15.40;99.90;;;;;;5039581;28;20408;-47
2021/08/31 07:27:25;;;;;;;8.07;6.40;;;15.60;99.90;;;;;;5042122;28;20013;-47
2021/08/31 07:29:50;;;;;;;7.35;5.95;;;15.80;99.90;;;;;;5038967;28;20036;-51
2021/08/31 07:32:16;;;;;;;10.88;6.10;;;15.90;99.90;;;;;;5042952;28;20021;-48
2021/08/31 07:34:42;;;;;;;7.63;6.03;;;16.10;99.90;;;;;;5042017;28;20022;-49
2021/08/31 07:37:08;;;;;;;9.52;5.57;;;16.30;99.90;;;;;;5040804;28;20043;-47
2021/08/31 07:39:34;;;;;;;7.50;5.53;;;16.40;99.90;;;;;;5040259;28;20021;-47
2021/08/31 07:42:00;;;;;;;6.07;5.18;;;16.50;99.90;;;;;;5041555;28;20014;-46
2021/08/31 07:44:26;;;;;;;8.18;5.55;;;16.80;99.90;;;;;;5036860;28;20373;-52
2021/08/31 07:46:52;;;;;;;7.03;5.13;;;17.00;99.90;;;;;;5040682;28;20500;-46
2021/08/31 07:49:18;;;;;;;8.48;5.65;;;17.20;99.90;;;;;;5040451;28;20021;-48
2021/08/31 07:51:45;;;;;;;9.27;5.03;;;17.30;99.90;;;;;;5041354;28;20021;-50
2021/08/31 07:54:11;;;;;;;8.27;4.85;;;17.30;99.90;;;;;;5039461;28;20036;-46
2021/08/31 07:56:37;;;;;;;9.90;5.40;;;17.50;99.90;;;;;;5041941;28;20056;-53
2021/08/31 07:59:03;;;;;;;7.05;4.07;;;17.70;99.90;;;;;;5041327;28;20070;-48
2021/08/31 08:01:30;;;;;;;5.22;4.72;;;18.00;99.90;;;;;;5040543;28;20032;-48
2021/08/31 08:03:56;;;;;;;6.82;4.50;;;18.00;99.90;;;;;;5042108;28;20020;-51
2021/08/31 08:06:22;;;;;;;6.60;4.47;;;18.10;99.90;;;;;;5032141;28;20028;-48
2021/08/31 08:08:47;;;;;;;8.40;4.22;;;18.30;99.90;;;;;;5041870;28;20013;-50
2021/08/31 08:11:13;;;;;;;5.57;4.05;;;18.40;99.90;;;;;;5022331;28;20102;-52
2021/08/31 08:13:38;;;;;;;5.35;4.03;;;18.60;99.90;;;;;;5040999;28;20017;-49
2021/08/31 08:16:04;;;;;;;6.03;4.22;;;18.70;99.90;;;;;;5039809;28;20025;-49
2021/08/31 08:18:30;;;;;;;6.10;3.58;;;18.80;99.90;;;;;;5042069;28;20092;-53
2021/08/31 08:20:56;;;;;;;4.78;3.97;;;19.10;99.90;;;;;;5041607;28;20515;-47
2021/08/31 08:23:22;;;;;;;6.00;3.88;;;19.10;99.90;;;;;;5028570;28;20426;-48
2021/08/31 08:25:49;;;;;;;5.97;4.13;;;19.40;99.90;;;;;;5040526;28;20041;-49
2021/08/31 08:28:15;;;;;;;5.57;4.10;;;19.50;99.90;;;;;;5036792;28;20099;-49
2021/08/31 08:30:40;;;;;;;4.90;4.03;;;19.50;99.90;;;;;;5041584;28;20029;-51
2021/08/31 08:33:06;;;;;;;8.07;3.88;;;19.70;99.90;;;;;;5033637;28;20026;-53
2021/08/31 08:35:32;;;;;;;7.57;4.45;;;19.90;99.90;;;;;;5039612;28;20033;-49
2021/08/31 08:37:59;;;;;;;4.30;3.50;;;20.00;99.90;;;;;;5040820;28;20040;-51
2021/08/31 08:40:26;;;;;;;5.07;4.22;;;20.20;99.90;;;;;;5037252;28;20044;-50
2021/08/31 08:42:52;;;;;;;5.60;3.97;;;20.30;99.90;;;;;;5036250;28;20025;-50
2021/08/31 08:45:18;;;;;;;5.07;3.65;;;20.40;99.90;;;;;;5036713;28;20020;-47
2021/08/31 08:47:44;;;;;;;5.93;3.50;;;20.50;99.90;;;;;;5036558;28;20028;-47
2021/08/31 08:50:11;;;;;;;4.28;3.85;;;20.80;99.90;;;;;;5042291;28;20020;-49
2021/08/31 08:52:37;;;;;;;5.57;3.55;;;20.70;99.90;;;;;;5037761;28;20026;-46
2021/08/31 08:55:08;;;;;;;4.03;3.30;;;20.70;99.90;;;;;;5044634;28;20086;-48
2021/08/31 08:57:33;;;;;;;4.60;3.53;;;20.80;99.90;;;;;;5024470;28;20049;-52
2021/08/31 08:59:59;;;;;;;5.85;3.90;;;21.00;99.90;;;;;;5038385;28;20067;-53
2021/08/31 09:02:44;;;;;;;4.68;3.72;;;21.00;99.90;;;;;;5037586;28;20033;-47
2021/08/31 09:05:30;;;;;;;4.75;3.75;;;20.70;99.90;;;;;;5039384;28;20024;-49
2021/08/31 09:08:07;;;;;;;6.68;3.63;;;20.60;99.90;;;;;;5035702;28;20071;-50
2021/08/31 09:10:34;;;;;;;5.25;3.50;;;20.70;99.90;;;;;;5040646;28;20028;-49
2021/08/31 09:13:00;;;;;;;4.38;3.80;;;20.60;99.90;;;;;;5038030;28;20025;-52
2021/08/31 09:15:30;;;;;;;4.20;3.08;;;20.60;99.90;;;;;;5027770;28;20030;-47
2021/08/31 09:20:37;;;;;;;4.15;3.53;;;20.70;99.90;;;;;;5036081;28;20032;-48
2021/08/31 09:23:05;;;;;;;10.38;3.35;;;20.90;99.90;;;;;;5038000;28;20388;-47
2021/08/31 09:25:35;;;;;;;4.25;3.45;;;21.00;99.90;;;;;;5037570;28;20017;-46
2021/08/31 09:28:01;;;;;;;3.90;3.50;;;21.20;99.90;;;;;;5035184;28;20021;-50
2021/08/31 09:30:30;;;;;;;6.25;3.50;;;21.10;99.90;;;;;;5035771;28;20074;-46
2021/08/31 09:33:08;;;;;;;6.07;3.22;;;21.00;99.90;;;;;;5038119;28;20044;-46
2021/08/31 09:35:44;;;;;;;3.65;3.17;;;20.90;99.90;;;;;;5036621;28;20479;-52
2021/08/31 09:38:20;;;;;;;5.03;3.47;;;21.00;99.90;;;;;;5039501;28;20422;-48
2021/08/31 09:40:51;;;;;;;7.82;3.92;;;21.10;99.90;;;;;;5036416;28;20128;-47
2021/08/31 09:43:21;;;;;;;4.75;3.60;;;21.20;99.90;;;;;;5032349;28;20021;-52
2021/08/31 09:45:50;;;;;;;4.28;3.60;;;21.00;99.90;;;;;;5037197;28;20024;-50
2021/08/31 09:48:18;;;;;;;8.70;4.60;;;20.90;99.90;;;;;;5039066;28;20036;-46
2021/08/31 09:50:44;;;;;;;4.40;3.85;;;21.00;99.90;;;;;;5038853;28;20024;-46
2021/08/31 09:53:14;;;;;;;4.72;3.95;;;21.10;99.90;;;;;;5038562;28;20029;-47
2021/08/31 09:55:46;;;;;;;6.05;4.03;;;21.20;99.90;;;;;;5038832;28;20022;-49
2021/08/31 09:58:23;;;;;;;5.38;3.50;;;21.20;99.90;;;;;;5038570;28;20259;-45
2021/08/31 10:00:50;;;;;;;4.43;3.53;;;21.30;99.90;;;;;;5040536;28;20124;-49
2021/08/31 10:03:17;;;;;;;5.75;3.95;;;21.50;99.90;;;;;;5040466;28;20108;-51
2021/08/31 10:05:44;;;;;;;5.93;4.00;;;21.30;99.90;;;;;;5038484;28;20028;-50
2021/08/31 10:08:11;;;;;;;5.80;3.80;;;21.20;99.90;;;;;;5035005;28;20016;-48
2021/08/31 10:10:38;;;;;;;6.80;3.50;;;21.00;99.90;;;;;;5034587;28;20268;-47
2021/08/31 10:13:08;;;;;;;5.13;3.88;;;21.00;99.90;;;;;;5037568;28;20072;-48
2021/08/31 10:15:39;;;;;;;4.95;3.53;;;20.90;99.90;;;;;;5031305;28;20116;-49
2021/08/31 10:18:05;;;;;;;5.97;4.32;;;20.80;99.90;;;;;;5040606;28;20033;-52
2021/08/31 10:20:32;;;;;;;8.63;4.13;;;20.70;99.90;;;;;;5036202;28;20029;-51
2021/08/31 10:22:58;;;;;;;6.03;3.95;;;20.60;99.90;;;;;;5037037;28;20028;-45
2021/08/31 10:25:26;;;;;;;4.63;3.72;;;20.60;99.90;;;;;;5038146;28;20010;-47
2021/08/31 10:27:54;;;;;;;6.88;4.35;;;20.60;99.90;;;;;;5034854;28;20037;-51
2021/08/31 10:30:19;;;;;;;5.72;4.13;;;20.80;99.90;;;;;;5041633;28;20017;-48
2021/08/31 10:32:47;;;;;;;4.03;3.38;;;20.90;99.90;;;;;;5040554;28;20020;-51
2021/08/31 10:35:39;;;;;;;4.50;3.60;;;20.90;99.90;;;;;;5038585;28;20021;-48
2021/08/31 10:38:14;;;;;;;5.43;3.83;;;20.90;99.90;;;;;;5046391;28;20086;-46
2021/08/31 10:40:46;;;;;;;7.55;3.90;;;20.90;99.90;;;;;;5039925;28;20021;-50
2021/08/31 10:43:14;;;;;;;3.92;3.60;;;21.00;99.90;;;;;;5041415;28;20052;-49
2021/08/31 10:45:43;;;;;;;4.65;3.78;;;21.00;99.90;;;;;;5036883;28;20115;-46
2021/08/31 10:48:23;;;;;;;4.88;3.72;;;20.90;99.90;;;;;;5042496;28;20484;-48
2021/08/31 10:51:02;;;;;;;5.63;4.13;;;20.80;99.90;;;;;;5041693;28;20025;-50
2021/08/31 10:53:48;;;;;;;4.53;4.10;;;20.60;99.90;;;;;;5030382;28;20096;-48
2021/08/31 10:56:22;;;;;;;5.55;3.47;;;20.50;99.90;;;;;;5040255;28;20025;-51
2021/08/31 10:58:59;;;;;;;3.78;3.35;;;20.40;99.90;;;;;;5043518;28;20070;-48
2021/08/31 11:01:35;;;;;;;5.55;4.00;;;20.50;99.90;;;;;;5042219;28;20024;-49
2021/08/31 11:04:00;;;;;;;4.97;3.35;;;20.60;99.90;;;;;;5042103;28;20086;-48
2021/08/31 11:06:31;;;;;;;4.70;3.67;;;20.80;99.90;;;;;;5041243;28;20484;-49
2021/08/31 11:09:10;;;;;;;3.95;3.42;;;20.80;99.90;;;;;;5042565;28;20336;-46
2021/08/31 11:11:37;;;;;;;5.22;3.90;;;20.80;99.90;;;;;;5037747;28;20020;-51
2021/08/31 11:14:03;;;;;;;6.03;3.75;;;20.80;99.90;;;;;;5042236;28;20077;-48
2021/08/31 11:16:35;;;;;;;4.18;3.65;;;20.90;99.90;;;;;;5042605;28;20013;-46
2021/08/31 11:19:02;;;;;;;4.35;3.58;;;20.90;99.90;;;;;;5041708;28;20088;-51
2021/08/31 11:21:27;;;;;;;4.70;3.78;;;20.60;99.90;;;;;;5039363;28;20056;-51
2021/08/31 11:24:05;;;;;;;5.57;3.67;;;20.50;99.90;;;;;;5048747;28;20053;-50
2021/08/31 11:26:31;;;;;;;7.78;4.00;;;20.40;99.90;;;;;;5034980;28;20028;-51
2021/08/31 11:29:07;;;;;;;6.10;4.18;;;20.50;99.90;;;;;;5041908;28;20013;-49
2021/08/31 11:31:33;;;;;;;5.20;3.85;;;20.60;99.90;;;;;;5036922;28;20018;-51
2021/08/31 11:33:58;;;;;;;5.25;4.38;;;20.70;99.90;;;;;;5042196;28;20743;-50
2021/08/31 11:36:28;;;;;;;4.55;3.50;;;20.80;99.90;;;;;;5038437;28;20079;-55
2021/08/31 11:39:03;;;;;;;5.05;3.78;;;20.90;99.90;;;;;;5036157;28;20014;-54
2021/08/31 11:41:34;;;;;;;3.80;3.17;;;21.10;99.90;;;;;;5041157;28;20013;-52
2021/08/31 11:44:13;;;;;;;4.50;3.90;;;21.10;99.90;;;;;;5037674;28;20436;-52
2021/08/31 11:46:43;;;;;;;3.60;3.30;;;21.10;99.90;;;;;;5039189;28;20013;-47
2021/08/31 11:49:29;;;;;;;7.18;3.67;;;21.10;99.90;;;;;;5040156;28;20091;-50
2021/08/31 11:51:54;;;;;;;;;;;21.00;99.90;;;;;;5043076;28;20021;-47
2021/08/31 11:54:21;;;;;;;4.13;3.70;;;21.10;99.90;;;;;;5039284;28;19915;-51
2021/08/31 11:56:58;;;;;;;4.75;3.35;;;21.20;99.90;;;;;;5042053;28;20158;-47
2021/08/31 11:59:42;;;;;;;4.60;3.78;;;21.20;99.90;;;;;;5040974;28;20100;-48
2021/08/31 12:02:16;;;;;;;4.03;3.63;;;21.10;99.90;;;;;;5040733;28;20079;-48
2021/08/31 12:04:58;;;;;;;5.97;3.75;;;21.00;99.90;;;;;;5032883;28;20025;-51
2021/08/31 12:07:42;;;;;;;4.25;3.63;;;20.80;99.90;;;;;;5033551;28;20026;-52
2021/08/31 12:10:22;;;;;;;4.50;3.80;;;20.80;99.90;;;;;;5040634;28;20451;-49
2021/08/31 12:12:49;;;;;;;4.22;3.38;;;20.90;99.90;;;;;;5041664;28;20083;-48
2021/08/31 12:15:15;;;;;;;4.95;3.63;;;21.10;99.90;;;;;;5041005;28;20033;-47
2021/08/31 12:17:44;;;;;;;3.88;3.28;;;21.30;99.90;;;;;;5041415;28;20025;-52
2021/08/31 12:20:22;;;;;;;4.63;3.47;;;21.50;99.90;;;;;;5041461;28;20037;-48
2021/08/31 12:22:50;;;;;;;4.72;3.60;;;21.60;99.90;;;;;;5041120;28;20426;-50
2021/08/31 12:25:18;;;;;;;4.63;3.55;;;21.70;99.90;;;;;;5041113;28;20079;-51
2021/08/31 12:27:49;;;;;;;6.13;3.92;;;21.80;99.90;;;;;;5038182;28;20017;-54
2021/08/31 12:30:17;;;;;;;3.60;3.30;;;22.00;99.90;;;;;;5040031;28;20698;-49
2021/08/31 12:32:52;;;;;;;3.88;3.15;;;22.00;99.90;;;;;;5041760;28;20029;-47
2021/08/31 12:35:41;;;;;;;4.28;3.72;;;22.10;99.90;;;;;;5039388;28;20048;-54
2021/08/31 12:38:23;;;;;;;6.00;4.25;;;22.00;99.70;;;;;;5039677;28;20029;-50
2021/08/31 12:40:52;;;;;;;4.35;3.95;;;22.10;99.90;;;;;;5035688;28;20056;-47
2021/08/31 12:43:19;;;;;;;4.93;3.67;;;22.20;99.40;;;;;;5040863;28;20044;-52
2021/08/31 12:45:58;;;;;;;5.68;3.85;;;22.30;99.30;;;;;;5038011;28;20087;-51
2021/08/31 12:48:37;;;;;;;7.07;3.83;;;22.40;99.90;;;;;;5026080;28;20020;-51